createdAt,value
2019-03-25T00:00:38.896Z,63.85
2019-03-25T00:03:11.808Z,66.35
2019-03-25T00:05:43.156Z,64.87
2019-03-25T00:08:15.512Z,64.00
2019-03-25T00:10:46.776Z,67.20
2019-03-25T00:13:18.082Z,70.47
2019-03-25T00:15:49.530Z,66.95
2019-03-25T00:18:20.857Z,76.70
2019-03-25T00:20:52.626Z,79.95
2019-03-25T00:23:23.962Z,83.47
2019-03-25T00:25:55.301Z,87.25
2019-03-25T00:28:26.632Z,89.62
2019-03-25T00:30:57.975Z,87.20
2019-03-25T00:33:29.322Z,91.30
2019-03-25T00:36:00.727Z,89.52
2019-03-25T00:38:33.680Z,90.15
2019-03-25T00:41:05.594Z,99.13
2019-03-25T00:43:37.932Z,100.62
2019-03-25T00:46:09.378Z,99.95
2019-03-25T00:48:40.777Z,96.90
2019-03-25T00:51:12.137Z,97.67
2019-03-25T00:53:43.517Z,96.28
2019-03-25T00:56:14.918Z,100.78
2019-03-25T00:58:46.865Z,100.40
2019-03-25T01:01:18.105Z,97.33
2019-03-25T01:03:49.382Z,93.37
2019-03-25T01:06:20.677Z,98.27
2019-03-25T01:08:52.002Z,91.97
2019-03-25T01:11:23.337Z,96.28
2019-03-25T01:13:55.977Z,93.90
2019-03-25T01:16:27.262Z,101.15
2019-03-25T01:18:59.929Z,102.58
2019-03-25T01:21:31.164Z,99.40
2019-03-25T01:24:02.414Z,114.00
2019-03-25T01:26:33.757Z,97.15
2019-03-25T01:29:05.081Z,108.40
2019-03-25T01:31:36.415Z,104.03
2019-03-25T01:34:07.831Z,103.62
2019-03-25T01:36:39.140Z,105.75
2019-03-25T01:39:10.452Z,102.95
2019-03-25T01:41:41.844Z,108.10
2019-03-25T01:44:13.140Z,105.12
2019-03-25T01:46:44.447Z,102.40
2019-03-25T01:49:15.812Z,91.08
2019-03-25T01:51:48.183Z,103.67
2019-03-25T01:54:20.523Z,104.67
2019-03-25T01:56:51.873Z,88.95
2019-03-25T01:59:23.190Z,98.67
2019-03-25T02:01:54.547Z,100.02
2019-03-25T02:04:28.413Z,105.85
2019-03-25T02:06:59.758Z,110.17
2019-03-25T02:09:31.116Z,102.38
2019-03-25T02:12:02.705Z,103.32
2019-03-25T02:14:34.052Z,102.12
2019-03-25T02:17:09.154Z,107.27
2019-03-25T02:22:10.767Z,102.67
2019-03-25T02:24:42.084Z,99.55
2019-03-25T02:27:13.302Z,99.95
2019-03-25T02:29:44.611Z,98.60
2019-03-25T02:32:15.960Z,101.62
2019-03-25T02:34:47.275Z,105.80
2019-03-25T02:37:18.507Z,96.20
2019-03-25T02:39:49.858Z,107.78
2019-03-25T02:42:22.928Z,115.57
2019-03-25T02:44:54.300Z,100.82
2019-03-25T02:47:25.618Z,107.87
2019-03-25T02:49:56.918Z,105.67
2019-03-25T02:52:28.149Z,102.62
2019-03-25T02:54:59.424Z,106.70
2019-03-25T02:57:30.766Z,101.35
2019-03-25T03:00:03.090Z,103.22
2019-03-25T03:02:35.575Z,95.75
2019-03-25T03:05:07.344Z,105.80
2019-03-25T03:07:38.637Z,105.32
2019-03-25T03:10:10.076Z,100.50
2019-03-25T03:12:41.516Z,98.03
2019-03-25T03:15:12.787Z,113.30
2019-03-25T03:17:44.076Z,101.60
2019-03-25T03:20:15.373Z,108.75
2019-03-25T03:22:46.723Z,106.85
2019-03-25T03:25:18.189Z,109.52
2019-03-25T03:27:49.429Z,110.78
2019-03-25T03:30:21.016Z,118.80
2019-03-25T03:32:54.134Z,108.32
2019-03-25T03:35:25.556Z,118.05
2019-03-25T03:37:56.874Z,107.25
2019-03-25T03:40:28.190Z,94.25
2019-03-25T03:42:59.493Z,105.75
2019-03-25T03:45:30.856Z,109.85
2019-03-25T03:48:02.309Z,104.63
2019-03-25T03:50:33.645Z,113.12
2019-03-25T03:53:05.170Z,120.00
2019-03-25T03:55:36.504Z,111.40
2019-03-25T03:58:07.890Z,112.88
2019-03-25T04:00:39.356Z,116.45
2019-03-25T04:03:11.087Z,132.67
2019-03-25T04:05:42.495Z,126.15
2019-03-25T04:08:13.817Z,134.87
2019-03-25T04:10:45.305Z,143.13
2019-03-25T04:13:18.898Z,152.32
2019-03-25T04:15:50.278Z,143.40
2019-03-25T04:18:25.511Z,146.57
2019-03-25T04:20:58.875Z,146.35
2019-03-25T04:23:30.169Z,146.15
2019-03-25T04:26:01.478Z,150.65
2019-03-25T04:28:32.823Z,153.60
2019-03-25T04:31:04.215Z,140.77
2019-03-25T04:33:35.413Z,234.12
2019-03-25T04:36:07.837Z,145.43
2019-03-25T04:38:39.075Z,141.47
2019-03-25T04:41:10.396Z,124.25
2019-03-25T04:43:41.762Z,125.30
2019-03-25T04:46:13.974Z,127.20
2019-03-25T04:48:45.330Z,125.65
2019-03-25T04:51:16.678Z,134.80
2019-03-25T04:53:48.110Z,124.72
2019-03-25T04:56:19.410Z,118.93
2019-03-25T04:58:50.717Z,117.93
2019-03-25T05:01:23.163Z,166.95
2019-03-25T05:03:54.413Z,128.02
2019-03-25T05:06:25.768Z,144.13
2019-03-25T05:08:57.101Z,119.80
2019-03-25T05:11:30.873Z,118.02
2019-03-25T05:14:01.466Z,120.67
2019-03-25T05:16:32.813Z,116.60
2019-03-25T05:19:04.172Z,121.33
2019-03-25T05:21:36.570Z,114.60
2019-03-25T05:24:08.955Z,109.42
2019-03-25T05:26:50.588Z,107.78
2019-03-25T05:29:13.733Z,112.92
2019-03-25T05:31:45.122Z,108.78
2019-03-25T05:34:17.979Z,106.80
2019-03-25T05:36:49.434Z,101.35
2019-03-25T05:39:20.765Z,100.53
2019-03-25T05:41:52.148Z,111.45
2019-03-25T05:44:23.544Z,101.27
2019-03-25T05:46:54.870Z,102.85
2019-03-25T05:49:26.246Z,91.65
2019-03-25T05:51:59.538Z,91.70
2019-03-25T05:54:30.879Z,91.75
2019-03-25T05:57:03.026Z,82.20
2019-03-25T05:59:34.536Z,83.42
2019-03-25T06:02:06.928Z,82.17
2019-03-25T06:04:38.121Z,72.00
2019-03-25T06:07:09.709Z,77.10
2019-03-25T06:09:41.122Z,76.87
2019-03-25T06:12:12.320Z,74.00
2019-03-25T06:14:44.685Z,72.08
2019-03-25T06:17:16.063Z,65.20
2019-03-25T06:19:47.381Z,70.45
2019-03-25T06:22:22.286Z,68.10
2019-03-25T06:24:53.602Z,70.57
2019-03-25T06:27:25.051Z,59.48
2019-03-25T06:29:56.510Z,68.42
2019-03-25T06:32:30.728Z,66.82
2019-03-25T06:35:02.150Z,66.40
2019-03-25T06:37:36.432Z,59.42
2019-03-25T06:40:07.870Z,65.00
2019-03-25T06:42:39.271Z,67.15
2019-03-25T06:45:11.126Z,59.88
2019-03-25T06:47:43.506Z,60.63
2019-03-25T06:50:14.922Z,58.28
2019-03-25T06:52:46.281Z,66.50
2019-03-25T06:55:17.596Z,63.50
2019-03-25T06:57:48.946Z,61.88
2019-03-25T07:00:20.834Z,58.58
2019-03-25T07:02:54.282Z,57.08
2019-03-25T07:05:25.618Z,54.27
2019-03-25T07:07:57.046Z,57.20
2019-03-25T07:10:33.570Z,57.85
2019-03-25T07:13:05.784Z,63.98
2019-03-25T07:15:37.209Z,54.70
2019-03-25T07:18:09.692Z,53.68
2019-03-25T07:20:41.305Z,56.20
2019-03-25T07:23:13.758Z,53.73
2019-03-25T07:25:45.307Z,52.05
2019-03-25T07:28:17.188Z,46.50
2019-03-25T07:30:48.695Z,52.13
2019-03-25T07:33:26.332Z,51.90
2019-03-25T07:35:57.955Z,52.20
2019-03-25T07:38:31.074Z,58.92
2019-03-25T07:41:05.729Z,59.80
2019-03-25T07:43:37.181Z,55.78
2019-03-25T07:46:08.677Z,55.80
2019-03-25T07:48:41.646Z,55.08
2019-03-25T07:51:13.224Z,56.53
2019-03-25T07:53:44.880Z,49.58
2019-03-25T07:56:16.157Z,52.15
2019-03-25T07:58:47.524Z,51.30
2019-03-25T08:01:18.880Z,50.17
2019-03-25T08:03:52.376Z,53.10
2019-03-25T08:06:23.884Z,36.85
2019-03-25T08:09:03.701Z,34.50
2019-03-25T08:11:30.399Z,21.48
2019-03-25T08:14:01.847Z,24.23
2019-03-25T08:16:33.288Z,20.70
2019-03-25T08:19:04.611Z,21.95
2019-03-25T08:21:36.954Z,21.55
2019-03-25T08:24:08.201Z,19.92
2019-03-25T08:26:42.896Z,22.17
2019-03-25T08:29:14.134Z,21.12
2019-03-25T08:31:46.373Z,20.50
2019-03-25T08:34:17.919Z,19.40
2019-03-25T08:36:50.308Z,18.65
2019-03-25T08:39:21.703Z,18.25
2019-03-25T08:41:53.069Z,18.48
2019-03-25T08:44:24.498Z,18.45
2019-03-25T08:46:55.895Z,17.15
2019-03-25T08:49:27.257Z,15.83
2019-03-25T08:51:59.803Z,18.82
2019-03-25T08:54:33.377Z,15.63
2019-03-25T08:57:05.056Z,14.90
2019-03-25T08:59:37.102Z,16.60
2019-03-25T09:02:10.386Z,20.10
2019-03-25T09:04:43.081Z,16.35
2019-03-25T09:07:14.467Z,17.95
2019-03-25T09:09:45.851Z,16.17
2019-03-25T09:12:19.073Z,19.30
2019-03-25T09:14:51.407Z,19.15
2019-03-25T09:17:24.082Z,15.80
2019-03-25T09:19:55.517Z,16.97
2019-03-25T09:22:27.055Z,15.55
2019-03-25T09:24:58.654Z,17.27
2019-03-25T09:27:32.942Z,15.75
2019-03-25T09:30:06.031Z,21.62
2019-03-25T09:32:39.446Z,20.62
2019-03-25T09:35:11.133Z,18.40
2019-03-25T09:37:43.506Z,17.75
2019-03-25T09:40:14.836Z,15.63
2019-03-25T09:42:46.146Z,15.65
2019-03-25T09:45:17.502Z,13.72
2019-03-25T09:47:49.944Z,15.60
2019-03-25T09:50:21.374Z,14.18
2019-03-25T09:52:52.798Z,15.68
2019-03-25T09:55:24.148Z,15.45
2019-03-25T09:57:55.703Z,13.03
2019-03-25T10:00:34.833Z,17.27
2019-03-25T10:03:06.323Z,13.20
2019-03-25T10:05:41.011Z,18.17
2019-03-25T10:08:12.386Z,17.77
2019-03-25T10:10:47.150Z,14.93
2019-03-25T10:13:22.679Z,19.52
2019-03-25T10:15:54.297Z,15.15
2019-03-25T10:18:28.757Z,16.55
2019-03-25T10:21:00.198Z,17.67
2019-03-25T10:23:31.738Z,15.63
2019-03-25T10:26:03.104Z,15.32
2019-03-25T10:28:34.487Z,13.60
2019-03-25T10:31:05.812Z,12.37
2019-03-25T10:33:37.211Z,16.93
2019-03-25T10:36:09.775Z,16.75
2019-03-25T10:38:43.008Z,16.77
2019-03-25T10:41:15.651Z,17.42
2019-03-25T10:43:51.714Z,14.80
2019-03-25T10:46:23.053Z,13.50
2019-03-25T10:48:55.595Z,14.00
2019-03-25T10:51:27.087Z,15.03
2019-03-25T10:53:58.520Z,19.52
2019-03-25T10:56:30.378Z,15.58
2019-03-25T10:59:03.363Z,14.85
2019-03-25T11:01:39.419Z,13.78
2019-03-25T11:04:12.088Z,16.85
2019-03-25T11:06:43.522Z,16.25
2019-03-25T11:09:16.575Z,17.25
2019-03-25T11:11:48.198Z,16.15
2019-03-25T11:14:19.705Z,15.80
2019-03-25T11:16:51.130Z,14.78
2019-03-25T11:19:24.529Z,16.87
2019-03-25T11:21:56.929Z,15.03
2019-03-25T11:24:28.282Z,14.10
2019-03-25T11:26:59.980Z,17.17
2019-03-25T11:29:31.702Z,16.45
2019-03-25T11:32:04.776Z,14.95
2019-03-25T11:34:37.316Z,15.10
2019-03-25T11:37:09.741Z,14.98
2019-03-25T11:39:41.560Z,13.95
2019-03-25T11:42:15.856Z,13.60
2019-03-25T11:44:47.392Z,17.60
2019-03-25T11:47:18.797Z,11.85
2019-03-25T11:49:51.259Z,15.38
2019-03-25T11:52:31.015Z,14.35
2019-03-25T11:55:02.488Z,13.80
2019-03-25T11:57:33.943Z,15.78
2019-03-25T12:00:09.284Z,15.05
2019-03-25T12:02:42.273Z,14.35
2019-03-25T12:05:14.744Z,15.13
2019-03-25T12:07:46.223Z,12.88
2019-03-25T12:10:33.346Z,11.48
2019-03-25T12:13:05.123Z,12.88
2019-03-25T12:15:37.949Z,16.40
2019-03-25T12:18:11.926Z,14.43
2019-03-25T12:20:43.816Z,14.03
2019-03-25T12:23:25.759Z,12.70
2019-03-25T12:25:49.445Z,16.82
2019-03-25T12:28:21.008Z,14.95
2019-03-25T12:30:52.991Z,13.60
2019-03-25T12:33:26.407Z,14.15
2019-03-25T12:36:01.539Z,14.43
2019-03-25T12:38:33.108Z,20.80
2019-03-25T12:41:04.698Z,18.80
2019-03-25T12:43:37.727Z,23.80
2019-03-25T12:46:10.742Z,19.77
2019-03-25T12:48:42.233Z,17.52
2019-03-25T12:51:13.544Z,15.80
2019-03-25T12:53:45.253Z,33.18
2019-03-25T12:56:16.740Z,21.07
2019-03-25T12:58:49.142Z,27.17
2019-03-25T13:01:20.768Z,22.73
2019-03-25T13:03:54.288Z,18.98
2019-03-25T13:06:26.128Z,17.60
2019-03-25T13:09:05.481Z,17.37
2019-03-25T13:11:39.986Z,31.70
2019-03-25T13:14:28.277Z,21.33
2019-03-25T13:17:00.296Z,26.12
2019-03-25T13:19:36.945Z,22.90
2019-03-25T13:22:09.380Z,16.93
2019-03-25T13:24:42.180Z,19.42
2019-03-25T13:27:17.302Z,17.52
2019-03-25T13:29:54.529Z,20.52
2019-03-25T13:32:35.073Z,21.00
2019-03-25T13:35:07.032Z,17.20
2019-03-25T13:37:38.515Z,17.52
2019-03-25T13:40:12.680Z,14.15
2019-03-25T13:42:44.391Z,13.05
2019-03-25T13:45:17.050Z,15.08
2019-03-25T13:47:48.680Z,14.68
2019-03-25T13:50:20.341Z,17.52
2019-03-25T13:52:52.876Z,17.62
2019-03-25T13:58:02.472Z,22.17
2019-03-25T14:00:40.101Z,19.02
2019-03-25T14:03:14.943Z,20.45
2019-03-25T14:05:49.069Z,23.73
2019-03-25T14:08:21.479Z,22.85
2019-03-25T14:10:53.071Z,41.20
2019-03-25T14:13:24.646Z,32.33
2019-03-25T14:15:58.215Z,37.45
2019-03-25T14:18:34.520Z,38.67
2019-03-25T14:21:06.059Z,34.98
2019-03-25T14:23:38.694Z,35.83
2019-03-25T14:26:13.526Z,32.48
2019-03-25T14:28:50.621Z,26.63
2019-03-25T14:31:29.479Z,36.77
2019-03-25T14:34:02.988Z,22.87
2019-03-25T14:36:34.466Z,26.87
2019-03-25T14:39:07.355Z,21.90
2019-03-25T14:41:38.862Z,26.48
2019-03-25T14:44:11.012Z,21.52
2019-03-25T14:46:44.714Z,23.17
2019-03-25T14:49:18.182Z,19.55
2019-03-25T14:51:49.814Z,30.27
2019-03-25T14:54:23.846Z,19.55
2019-03-25T14:56:55.383Z,22.63
2019-03-25T14:59:28.104Z,20.00
2019-03-25T15:02:05.977Z,19.98
2019-03-25T15:04:34.331Z,17.30
2019-03-25T15:07:05.877Z,16.52
2019-03-25T15:09:37.284Z,18.62
2019-03-25T15:12:12.528Z,20.60
2019-03-25T15:14:44.964Z,21.10
2019-03-25T15:17:16.534Z,19.00
2019-03-25T15:19:49.123Z,22.30
2019-03-25T15:22:20.508Z,21.80
2019-03-25T15:24:53.755Z,24.63
2019-03-25T15:27:25.396Z,25.72
2019-03-25T15:30:01.188Z,25.15
2019-03-25T15:32:34.461Z,22.95
2019-03-25T15:35:16.781Z,26.57
2019-03-25T15:38:01.584Z,25.97
2019-03-25T15:40:43.395Z,29.15
2019-03-25T15:43:26.826Z,25.92
2019-03-25T15:45:58.233Z,26.27
2019-03-25T15:48:32.124Z,25.55
2019-03-25T15:51:05.151Z,30.48
2019-03-25T15:53:36.601Z,30.25
2019-03-25T15:56:10.652Z,36.10
2019-03-25T15:58:43.969Z,37.73
2019-03-25T16:01:15.478Z,29.63
2019-03-25T16:03:47.058Z,27.55
2019-03-25T16:06:18.625Z,30.43
2019-03-25T16:08:51.495Z,34.10
2019-03-25T16:11:24.236Z,31.73
2019-03-25T16:16:30.442Z,28.92
2019-03-25T16:19:05.466Z,29.45
2019-03-25T16:21:37.144Z,31.57
2019-03-25T16:24:10.088Z,27.10
2019-03-25T16:26:41.615Z,21.95
2019-03-25T16:29:13.019Z,28.42
2019-03-25T16:31:44.525Z,26.80
2019-03-25T16:34:18.492Z,27.30
2019-03-25T16:36:50.285Z,28.57
2019-03-25T16:39:24.400Z,23.98
2019-03-25T16:41:57.900Z,34.48
2019-03-25T16:44:29.347Z,25.27
2019-03-25T16:47:00.885Z,29.32
2019-03-25T16:49:32.243Z,23.27
2019-03-25T16:52:08.162Z,27.25
2019-03-25T16:54:39.733Z,24.65
2019-03-25T16:57:11.324Z,27.07
2019-03-25T16:59:43.778Z,28.67
2019-03-25T17:02:15.263Z,29.50
2019-03-25T17:04:46.983Z,33.02
2019-03-25T17:07:18.394Z,30.00
2019-03-25T17:09:49.806Z,31.93
2019-03-25T17:12:21.125Z,29.12
2019-03-25T17:14:55.917Z,30.92
2019-03-25T17:17:27.277Z,27.13
2019-03-25T17:19:59.650Z,32.63
2019-03-25T17:22:31.044Z,27.42
2019-03-25T17:25:02.463Z,22.77
2019-03-25T17:27:34.024Z,26.50
2019-03-25T17:30:11.554Z,20.43
2019-03-25T17:32:43.049Z,22.10
2019-03-25T17:35:14.422Z,20.82
2019-03-25T17:37:46.101Z,25.88
2019-03-25T17:40:17.502Z,21.42
2019-03-25T17:42:49.087Z,18.62
2019-03-25T17:45:21.269Z,22.20
2019-03-25T17:47:52.937Z,21.15
2019-03-25T17:50:25.791Z,23.83
2019-03-25T17:52:57.461Z,21.97
2019-03-25T17:55:29.095Z,22.60
2019-03-25T17:58:02.226Z,16.95
2019-03-25T18:00:49.066Z,18.27
2019-03-25T18:03:20.323Z,17.30
2019-03-25T18:05:51.738Z,19.70
2019-03-25T18:08:23.791Z,26.70
2019-03-25T18:10:55.269Z,20.20
2019-03-25T18:13:32.032Z,22.17
2019-03-25T18:16:03.556Z,21.75
2019-03-25T18:18:38.831Z,20.57
2019-03-25T18:21:10.173Z,18.67
2019-03-25T18:23:41.606Z,19.57
2019-03-25T18:26:13.090Z,19.87
2019-03-25T18:28:45.477Z,20.60
2019-03-25T18:31:16.806Z,18.98
2019-03-25T18:33:48.191Z,15.85
2019-03-25T18:36:19.559Z,18.80
2019-03-25T18:38:50.910Z,18.57
2019-03-25T18:41:23.702Z,19.02
2019-03-25T18:43:55.081Z,21.07
2019-03-25T18:46:26.595Z,21.93
2019-03-25T18:48:58.151Z,18.60
2019-03-25T18:51:29.671Z,19.45
2019-03-25T18:54:00.988Z,22.95
2019-03-25T18:56:32.445Z,19.82
2019-03-25T18:59:04.036Z,18.62
2019-03-25T19:01:35.390Z,17.92
2019-03-25T19:04:06.956Z,19.45
2019-03-25T19:06:38.722Z,19.15
2019-03-25T19:09:11.657Z,17.07
2019-03-25T19:11:43.081Z,18.30
2019-03-25T19:14:15.502Z,18.67
2019-03-25T19:16:46.973Z,18.10
2019-03-25T19:19:20.069Z,20.08
2019-03-25T19:21:53.161Z,18.77
2019-03-25T19:24:26.155Z,20.43
2019-03-25T19:26:57.496Z,20.62
2019-03-25T19:29:28.985Z,19.62
2019-03-25T19:32:06.509Z,21.20
2019-03-25T19:34:33.297Z,23.40
2019-03-25T19:37:04.719Z,22.30
2019-03-25T19:39:37.175Z,20.35
2019-03-25T19:42:08.876Z,25.35
2019-03-25T19:44:41.243Z,22.45
2019-03-25T19:47:12.598Z,25.62
2019-03-25T19:49:46.017Z,25.77
2019-03-25T19:52:17.442Z,26.60
2019-03-25T19:54:49.845Z,28.42
2019-03-25T19:57:21.294Z,28.52
2019-03-25T19:59:55.223Z,31.00
2019-03-25T20:02:26.816Z,30.60
2019-03-25T20:04:58.123Z,28.62
2019-03-25T20:07:29.597Z,29.48
2019-03-25T20:10:00.982Z,28.67
2019-03-25T20:12:32.287Z,24.82
2019-03-25T20:15:07.136Z,29.18
2019-03-25T20:17:38.472Z,27.02
2019-03-25T20:20:09.890Z,26.80
2019-03-25T20:22:41.218Z,25.97
2019-03-25T20:25:12.649Z,27.82
2019-03-25T20:27:44.174Z,27.95
2019-03-25T20:30:15.541Z,25.68
2019-03-25T20:32:46.982Z,22.05
2019-03-25T20:35:18.457Z,23.57
2019-03-25T20:37:49.777Z,27.05
2019-03-25T20:40:21.185Z,25.55
2019-03-25T20:42:52.493Z,32.00
2019-03-25T20:45:23.874Z,26.50
2019-03-25T20:47:55.307Z,28.57
2019-03-25T20:50:26.666Z,24.23
2019-03-25T20:52:57.930Z,26.23
2019-03-25T20:55:30.224Z,32.23
2019-03-25T20:58:02.644Z,28.12
2019-03-25T21:00:45.910Z,34.03
2019-03-25T21:03:18.133Z,25.45
2019-03-25T21:05:49.517Z,31.12
2019-03-25T21:08:20.897Z,31.85
2019-03-25T21:10:53.203Z,31.80
2019-03-25T21:13:24.573Z,31.60
2019-03-25T21:15:56.151Z,34.58
2019-03-25T21:18:27.519Z,28.92
2019-03-25T21:20:59.867Z,27.62
2019-03-25T21:23:32.297Z,28.90
2019-03-25T21:26:03.731Z,31.95
2019-03-25T21:28:35.069Z,27.85
2019-03-25T21:31:06.400Z,29.85
2019-03-25T21:33:37.824Z,25.72
2019-03-25T21:36:09.223Z,24.92
2019-03-25T21:38:40.628Z,24.23
2019-03-25T21:41:11.975Z,34.95
2019-03-25T21:43:43.310Z,21.90
2019-03-25T21:46:14.641Z,22.45
2019-03-25T21:48:46.009Z,29.95
2019-03-25T21:51:17.441Z,19.55
2019-03-25T21:53:48.707Z,19.42
2019-03-25T21:56:19.926Z,28.92
2019-03-25T21:58:51.188Z,17.92
2019-03-25T22:01:22.368Z,20.32
2019-03-25T22:03:54.648Z,25.15
2019-03-25T22:06:25.875Z,25.77
2019-03-25T22:08:57.126Z,23.83
2019-03-25T22:11:28.331Z,22.45
2019-03-25T22:13:59.555Z,22.50
2019-03-25T22:16:30.778Z,31.70
2019-03-25T22:19:02.142Z,30.95
2019-03-25T22:21:33.490Z,27.77
2019-03-25T22:24:04.820Z,19.52
2019-03-25T22:26:37.108Z,19.05
2019-03-25T22:29:08.437Z,19.32
2019-03-25T22:31:39.545Z,14.15
2019-03-25T22:34:10.777Z,17.95
2019-03-25T22:36:41.965Z,23.18
2019-03-25T22:39:13.214Z,15.40
2019-03-25T22:41:44.404Z,14.10
2019-03-25T22:44:15.637Z,18.00
2019-03-25T22:46:46.857Z,21.05
2019-03-25T22:49:18.851Z,16.40
2019-03-25T22:51:51.167Z,18.30
2019-03-25T22:54:22.312Z,21.30
2019-03-25T22:56:53.512Z,17.55
2019-03-25T22:59:24.879Z,20.45
2019-03-25T23:01:55.989Z,27.17
2019-03-25T23:04:28.043Z,19.90
2019-03-25T23:06:59.258Z,17.62
2019-03-25T23:09:30.471Z,15.43
2019-03-25T23:12:03.121Z,21.30
2019-03-25T23:14:34.388Z,20.50
2019-03-25T23:17:05.591Z,23.55
2019-03-25T23:19:38.620Z,14.90
2019-03-25T23:22:09.657Z,17.50
2019-03-25T23:24:40.897Z,15.88
2019-03-25T23:27:12.277Z,15.03
2019-03-25T23:29:43.551Z,14.75
2019-03-25T23:32:14.775Z,14.75
2019-03-25T23:34:45.983Z,25.27
2019-03-25T23:37:18.362Z,14.93
2019-03-25T23:39:49.610Z,12.07
2019-03-25T23:42:20.857Z,15.13
2019-03-25T23:44:52.117Z,12.73
2019-03-25T23:47:23.344Z,16.48
2019-03-25T23:49:54.594Z,15.05
2019-03-25T23:52:26.003Z,19.00
2019-03-25T23:54:57.268Z,17.65
2019-03-25T23:57:28.569Z,16.20
2019-03-25T23:59:59.804Z,21.05
